Time;durP1;ratioP1;P1;durP2;ratioP2;P2;SDS_P1;SDS_P2;PMS_P1;PMS_P2;Temp;Humidity;BMP_temperature;BMP_pressure;BME280_temperature;BME280_humidity;BME280_pressure;Samples;Min_cycle;Max_cycle;Signal;HPM_P1;HPM_P2
2021/07/20 00:02:39;;;;;;;8.80;7.83;;;26.50;48.30;;;;;;5107627;28;20247;-64
2021/07/20 00:05:11;;;;;;;8.00;7.20;;;26.50;48.30;;;;;;5097308;28;20254;-64
2021/07/20 00:07:42;;;;;;;8.63;7.70;;;26.50;48.30;;;;;;5099772;28;20519;-64
2021/07/20 00:10:14;;;;;;;7.40;6.70;;;26.50;48.40;;;;;;5106465;28;20242;-64
2021/07/20 00:12:44;;;;;;;8.07;7.27;;;26.40;48.20;;;;;;5092700;28;20245;-64
2021/07/20 00:15:18;;;;;;;7.50;6.80;;;26.40;48.30;;;;;;5109568;28;20192;-64
2021/07/20 00:17:54;;;;;;;8.47;6.93;;;26.40;48.30;;;;;;5102161;28;20249;-65
2021/07/20 00:20:29;;;;;;;7.80;7.00;;;26.40;48.30;;;;;;5101871;28;20199;-64
2021/07/20 00:22:59;;;;;;;8.10;7.37;;;26.40;48.40;;;;;;5102832;28;20711;-64
2021/07/20 00:25:30;;;;;;;8.57;7.77;;;26.40;48.40;;;;;;5099409;28;20185;-64
2021/07/20 00:28:00;;;;;;;8.50;7.60;;;26.40;48.40;;;;;;5102925;28;20200;-65
2021/07/20 00:30:39;;;;;;;7.90;7.10;;;26.40;48.40;;;;;;5102616;28;20222;-65
2021/07/20 00:33:12;;;;;;;7.80;7.10;;;26.30;48.30;;;;;;5104799;28;20262;-65
2021/07/20 00:36:07;;;;;;;8.23;7.47;;;26.30;48.40;;;;;;5104320;28;20227;-65
2021/07/20 00:38:38;;;;;;;7.30;6.60;;;26.30;48.40;;;;;;5100404;28;20575;-65
2021/07/20 00:41:09;;;;;;;8.27;7.33;;;26.30;48.40;;;;;;5099749;28;20211;-64
2021/07/20 00:43:40;;;;;;;8.37;7.57;;;26.30;48.40;;;;;;5107541;28;20574;-64
2021/07/20 00:46:09;;;;;;;8.33;7.53;;;26.20;48.40;;;;;;5106901;28;20200;-65
2021/07/20 00:48:41;;;;;;;8.20;7.40;;;26.20;48.40;;;;;;5101641;28;20550;-63
2021/07/20 00:51:14;;;;;;;8.37;7.57;;;26.20;48.40;;;;;;5099955;28;20192;-63
2021/07/20 00:53:46;;;;;;;7.13;6.33;;;26.20;48.40;;;;;;5101791;28;20205;-64
2021/07/20 00:56:19;;;;;;;8.97;8.07;;;26.20;48.30;;;;;;5103885;28;20260;-65
2021/07/20 00:58:56;;;;;;;8.60;7.80;;;26.20;48.30;;;;;;5091300;28;20201;-65
2021/07/20 01:01:29;;;;;;;8.27;7.43;;;26.20;48.30;;;;;;5098482;28;20743;-64
2021/07/20 01:03:58;;;;;;;8.60;7.57;;;26.10;48.60;;;;;;5108869;28;20200;-65
2021/07/20 01:06:30;;;;;;;8.50;7.70;;;26.10;48.30;;;;;;5100726;28;20296;-64
2021/07/20 01:09:03;;;;;;;8.77;7.97;;;26.10;48.20;;;;;;5098977;28;20204;-65
2021/07/20 01:11:37;;;;;;;8.43;7.63;;;26.10;48.30;;;;;;5101391;28;20212;-65
2021/07/20 01:14:07;;;;;;;9.00;7.57;;;26.10;48.30;;;;;;5096291;28;20205;-64
2021/07/20 01:16:45;;;;;;;9.10;8.23;;;26.10;48.30;;;;;;5094672;28;20208;-64
2021/07/20 01:19:19;;;;;;;8.03;7.33;;;26.10;48.30;;;;;;5097885;28;20232;-64
2021/07/20 01:22:01;;;;;;;9.50;7.90;;;26.10;48.30;;;;;;5103359;28;20740;-64
2021/07/20 01:24:31;;;;;;;8.57;7.77;;;26.10;48.40;;;;;;5106827;28;20275;-64
2021/07/20 01:27:01;;;;;;;8.23;7.43;;;26.10;48.40;;;;;;5099990;28;20196;-64
2021/07/20 01:29:51;;;;;;;8.53;7.60;;;26.10;48.40;;;;;;5104462;28;20206;-65
2021/07/20 01:32:40;;;;;;;8.90;8.07;;;26.10;48.40;;;;;;5105453;28;20212;-64
2021/07/20 01:35:12;;;;;;;8.00;7.20;;;26.00;48.40;;;;;;5100636;28;20215;-64
2021/07/20 01:37:44;;;;;;;8.80;8.00;;;26.00;48.40;;;;;;5106900;28;20199;-65
2021/07/20 01:40:17;;;;;;;8.43;7.63;;;26.00;49.10;;;;;;5100662;28;20193;-64
2021/07/20 01:42:52;;;;;;;9.27;8.37;;;26.00;48.50;;;;;;5108377;28;20192;-64
2021/07/20 01:45:29;;;;;;;8.93;8.03;;;26.00;48.50;;;;;;5102837;28;20201;-65
2021/07/20 01:48:00;;;;;;;9.47;7.97;;;26.00;48.50;;;;;;5103339;28;20211;-64
2021/07/20 01:50:31;;;;;;;9.57;7.50;;;26.00;48.50;;;;;;5102875;28;20212;-64
2021/07/20 01:53:03;;;;;;;8.77;7.83;;;26.00;48.50;;;;;;5091168;28;20193;-64
2021/07/20 01:55:36;;;;;;;8.07;7.20;;;26.00;48.50;;;;;;5101153;28;20295;-64
2021/07/20 01:58:06;;;;;;;8.10;7.30;;;25.90;49.10;;;;;;5102498;28;20296;-65
2021/07/20 02:00:39;;;;;;;9.73;8.30;;;25.90;48.50;;;;;;5103462;27;20200;-65
2021/07/20 02:03:32;;;;;;;9.37;8.17;;;25.90;48.50;;;;;;5108293;28;20324;-64
2021/07/20 02:09:18;;;;;;;8.33;7.53;;;25.90;48.60;;;;;;5101641;28;20185;-64
2021/07/20 02:11:54;;;;;;;8.57;7.77;;;25.90;48.60;;;;;;5099553;28;20188;-64
2021/07/20 02:14:31;;;;;;;10.00;7.67;;;25.90;48.60;;;;;;5106810;28;20200;-64
2021/07/20 02:17:13;;;;;;;8.67;7.83;;;25.90;48.60;;;;;;5113118;28;20652;-63
2021/07/20 02:19:54;;;;;;;8.53;7.73;;;25.90;48.50;;;;;;5111875;28;20258;-64
2021/07/20 02:22:26;;;;;;;8.47;7.60;;;25.90;48.50;;;;;;5110832;28;20218;-64
2021/07/20 02:25:22;;;;;;;9.07;7.90;;;25.90;48.60;;;;;;5109956;28;20723;-64
2021/07/20 02:28:46;;;;;;;8.50;7.70;;;25.90;48.50;;;;;;5111176;28;20279;-63
2021/07/20 02:31:19;;;;;;;8.83;7.93;;;25.80;48.50;;;;;;5100568;28;20633;-64
2021/07/20 02:33:52;;;;;;;8.53;7.73;;;25.80;48.60;;;;;;5094923;28;20257;-64
2021/07/20 02:36:24;;;;;;;8.97;8.17;;;25.80;48.60;;;;;;5104794;28;20236;-64
2021/07/20 02:38:53;;;;;;;8.27;7.47;;;25.80;49.20;;;;;;5106697;28;20211;-64
2021/07/20 02:41:26;;;;;;;9.20;7.87;;;25.80;48.60;;;;;;5098323;28;20204;-64
2021/07/20 02:43:59;;;;;;;9.13;8.23;;;25.80;48.60;;;;;;5107147;28;20235;-64
2021/07/20 02:46:31;;;;;;;8.90;8.00;;;25.80;48.60;;;;;;5108385;28;20207;-64
2021/07/20 02:49:00;;;;;;;8.33;7.53;;;25.80;48.60;;;;;;5104066;28;20266;-64
2021/07/20 02:51:30;;;;;;;8.50;7.70;;;25.70;48.50;;;;;;5114470;27;20659;-64
2021/07/20 02:53:59;;;;;;;11.90;8.20;;;25.70;48.50;;;;;;5107804;28;20204;-64
2021/07/20 02:56:31;;;;;;;9.03;8.03;;;25.70;48.50;;;;;;5111463;28;20208;-64
2021/07/20 02:59:05;;;;;;;8.67;7.77;;;25.70;48.40;;;;;;5108754;28;20200;-64
2021/07/20 03:01:37;;;;;;;7.93;7.13;;;25.70;48.40;;;;;;5112663;27;20204;-64
2021/07/20 03:04:10;;;;;;;8.57;7.70;;;25.70;48.40;;;;;;5097766;28;20261;-63
2021/07/20 03:06:44;;;;;;;8.47;7.67;;;25.70;48.40;;;;;;5106919;28;20215;-64
2021/07/20 03:09:32;;;;;;;8.43;7.63;;;25.70;48.40;;;;;;5110539;28;20232;-63
2021/07/20 03:12:09;;;;;;;9.40;7.80;;;25.70;48.40;;;;;;5109047;28;20203;-64
2021/07/20 03:14:42;;;;;;;9.03;8.13;;;25.70;48.40;;;;;;5100319;28;20209;-64
2021/07/20 03:17:15;;;;;;;8.40;7.60;;;25.70;49.00;;;;;;5106283;28;20180;-64
2021/07/20 03:19:46;;;;;;;9.47;8.47;;;25.70;48.40;;;;;;5110087;27;20229;-64
2021/07/20 03:22:17;;;;;;;8.73;7.83;;;25.70;48.30;;;;;;5104148;27;20200;-64
2021/07/20 03:24:47;;;;;;;8.50;7.60;;;25.70;48.40;;;;;;5098741;28;20200;-64
2021/07/20 03:27:20;;;;;;;8.60;7.80;;;25.60;48.30;;;;;;5087379;28;20413;-64
2021/07/20 03:29:51;;;;;;;8.73;7.90;;;25.60;48.30;;;;;;5092864;28;20200;-64
2021/07/20 03:32:21;;;;;;;8.70;7.90;;;25.60;48.30;;;;;;5103902;28;20220;-64
2021/07/20 03:34:53;;;;;;;9.17;7.33;;;25.60;48.30;;;;;;5108567;28;20195;-64
2021/07/20 03:37:26;;;;;;;8.63;7.73;;;25.60;48.30;;;;;;5106011;28;20617;-64
2021/07/20 03:39:56;;;;;;;8.90;8.10;;;25.60;48.20;;;;;;5100979;28;20198;-64
2021/07/20 03:42:48;;;;;;;8.20;7.50;;;25.60;48.20;;;;;;5099076;28;20209;-63
2021/07/20 03:45:17;;;;;;;8.30;7.50;;;25.60;48.20;;;;;;5107000;28;20236;-63
2021/07/20 03:47:47;;;;;;;10.47;8.23;;;25.50;48.10;;;;;;5107299;28;20661;-63
2021/07/20 03:50:20;;;;;;;9.23;8.23;;;25.50;48.10;;;;;;5102790;28;20649;-64
2021/07/20 03:52:53;;;;;;;8.70;7.80;;;25.50;48.10;;;;;;5098211;28;20208;-64
2021/07/20 03:55:25;;;;;;;8.43;7.63;;;25.50;48.10;;;;;;5103763;27;20204;-64
2021/07/20 03:57:56;;;;;;;9.63;8.20;;;25.50;48.20;;;;;;5104486;28;20204;-65
2021/07/20 04:00:24;;;;;;;8.37;7.40;;;25.50;48.20;;;;;;5101421;28;20201;-64
2021/07/20 04:03:21;;;;;;;18.43;8.00;;;25.50;48.20;;;;;;5110947;28;20216;-64
2021/07/20 04:06:03;;;;;;;8.83;7.93;;;25.50;48.10;;;;;;5104718;28;20184;-65
2021/07/20 04:08:38;;;;;;;8.80;8.00;;;25.50;48.10;;;;;;5081606;28;20200;-65
2021/07/20 04:11:07;;;;;;;8.77;7.90;;;25.50;48.00;;;;;;5108353;27;20686;-63
2021/07/20 04:13:39;;;;;;;9.73;7.97;;;25.50;47.90;;;;;;5104854;28;20709;-63
2021/07/20 04:16:09;;;;;;;9.13;8.23;;;25.50;47.90;;;;;;5108498;28;20223;-63
2021/07/20 04:18:38;;;;;;;11.03;8.73;;;25.40;47.80;;;;;;5106491;28;20225;-63
2021/07/20 04:21:08;;;;;;;11.33;9.07;;;25.50;47.90;;;;;;5102386;28;20200;-63
2021/07/20 04:23:40;;;;;;;10.70;8.83;;;25.40;47.80;;;;;;5099210;28;20220;-63
2021/07/20 04:26:14;;;;;;;10.30;8.23;;;25.40;47.80;;;;;;5106563;28;20208;-63
2021/07/20 04:28:44;;;;;;;9.20;8.30;;;25.50;47.80;;;;;;5108328;28;20199;-63
2021/07/20 04:31:17;;;;;;;9.03;8.17;;;25.40;47.80;;;;;;5093777;28;20212;-65
2021/07/20 04:33:57;;;;;;;9.20;8.30;;;25.40;47.80;;;;;;5101417;28;20205;-65
2021/07/20 04:36:26;;;;;;;9.67;8.67;;;25.40;47.70;;;;;;5102956;28;20579;-65
2021/07/20 04:38:59;;;;;;;10.87;8.67;;;25.40;47.80;;;;;;5104533;28;20207;-65
2021/07/20 04:41:29;;;;;;;10.73;8.50;;;25.40;47.80;;;;;;5107047;28;20200;-65
2021/07/20 04:44:04;;;;;;;10.10;8.30;;;25.40;47.80;;;;;;5101055;28;20335;-65
2021/07/20 04:46:33;;;;;;;10.57;9.47;;;25.40;47.70;;;;;;5088696;28;20196;-65
2021/07/20 04:49:34;;;;;;;9.57;8.67;;;25.40;47.80;;;;;;5098688;28;20201;-64
2021/07/20 04:52:09;;;;;;;9.20;8.27;;;25.40;47.80;;;;;;5099231;28;20593;-64
2021/07/20 04:54:43;;;;;;;8.80;8.00;;;25.40;47.80;;;;;;5101923;28;20188;-63
2021/07/20 04:57:14;;;;;;;10.17;9.17;;;25.40;47.80;;;;;;5088346;28;20785;-65
2021/07/20 04:59:43;;;;;;;10.43;9.20;;;25.40;47.70;;;;;;5104097;28;20272;-64
2021/07/20 05:02:16;;;;;;;11.70;8.67;;;25.40;47.70;;;;;;5104346;28;20201;-64
2021/07/20 05:04:47;;;;;;;11.97;9.57;;;25.30;47.60;;;;;;5101440;28;20286;-65
2021/07/20 05:07:18;;;;;;;11.07;9.97;;;25.30;47.60;;;;;;5099267;28;20229;-64
2021/07/20 05:09:50;;;;;;;12.77;9.30;;;25.30;48.30;;;;;;5101749;28;20556;-64
2021/07/20 05:12:19;;;;;;;13.70;9.60;;;25.30;48.40;;;;;;5113590;28;20335;-63
2021/07/20 05:14:48;;;;;;;13.20;9.47;;;25.30;48.60;;;;;;5098356;28;20207;-64
2021/07/20 05:17:33;;;;;;;10.97;9.93;;;25.30;48.50;;;;;;5106697;28;20193;-64
2021/07/20 05:20:09;;;;;;;11.20;9.67;;;25.30;48.60;;;;;;5112814;28;20267;-64
2021/07/20 05:22:45;;;;;;;163.97;51.17;;;25.30;48.30;;;;;;5101236;28;20688;-64
2021/07/20 05:25:19;;;;;;;84.23;29.63;;;25.30;49.30;;;;;;5094015;28;20208;-63
2021/07/20 05:28:09;;;;;;;33.50;14.83;;;25.40;49.80;;;;;;5101041;28;20192;-66
2021/07/20 05:30:47;;;;;;;21.40;12.93;;;25.40;49.50;;;;;;5098983;28;20205;-64
2021/07/20 05:33:23;;;;;;;15.03;11.10;;;25.50;48.90;;;;;;5098097;28;20218;-64
2021/07/20 05:36:09;;;;;;;14.37;11.37;;;25.50;48.30;;;;;;5102397;28;20296;-63
2021/07/20 05:38:39;;;;;;;15.33;11.77;;;25.50;48.00;;;;;;5099428;28;20244;-64
2021/07/20 05:41:11;;;;;;;14.63;11.77;;;25.50;48.00;;;;;;5102967;28;20200;-61
2021/07/20 05:43:42;;;;;;;15.70;11.30;;;25.50;48.00;;;;;;5104835;28;20207;-62
2021/07/20 05:46:13;;;;;;;14.70;11.80;;;25.50;48.00;;;;;;5100664;28;20657;-62
2021/07/20 05:48:46;;;;;;;13.63;11.07;;;25.50;48.30;;;;;;5097335;28;20242;-61
2021/07/20 05:51:16;;;;;;;12.60;11.30;;;25.50;47.90;;;;;;5100956;28;20192;-62
2021/07/20 05:53:45;;;;;;;17.33;12.10;;;25.50;47.60;;;;;;5095368;28;20207;-62
2021/07/20 05:56:15;;;;;;;24.10;12.40;;;25.50;47.50;;;;;;5102405;28;20212;-62
2021/07/20 05:58:50;;;;;;;18.53;12.20;;;25.50;47.70;;;;;;5086577;28;20204;-63
2021/07/20 06:01:23;;;;;;;16.23;12.03;;;25.50;47.60;;;;;;5101679;28;20212;-62
2021/07/20 06:04:01;;;;;;;16.00;11.90;;;25.40;47.40;;;;;;5102625;28;20214;-62
2021/07/20 06:06:33;;;;;;;77.80;26.93;;;25.40;47.40;;;;;;5100033;28;20200;-67
2021/07/20 06:09:11;;;;;;;46.60;20.00;;;25.40;50.70;;;;;;5100791;28;20212;-61
2021/07/20 06:11:41;;;;;;;30.00;15.60;;;25.40;51.50;;;;;;5099819;28;20240;-64
2021/07/20 06:14:24;;;;;;;18.93;13.50;;;25.40;51.20;;;;;;5081910;28;20261;-63
2021/07/20 06:16:54;;;;;;;17.60;13.30;;;25.40;50.60;;;;;;5102475;28;20216;-63
2021/07/20 06:19:26;;;;;;;14.53;12.40;;;25.40;50.30;;;;;;5104845;28;20248;-62
2021/07/20 06:21:57;;;;;;;16.07;12.37;;;25.40;49.80;;;;;;5123380;28;20184;-63
2021/07/20 06:24:28;;;;;;;16.03;11.77;;;25.40;49.60;;;;;;5104725;28;20710;-64
2021/07/20 06:27:01;;;;;;;14.90;12.67;;;25.40;49.40;;;;;;5092872;28;20193;-64
2021/07/20 06:29:34;;;;;;;16.43;12.30;;;25.40;49.40;;;;;;5102777;28;20205;-64
2021/07/20 06:32:03;;;;;;;16.30;12.53;;;25.40;49.40;;;;;;5086416;28;20231;-63
2021/07/20 06:34:37;;;;;;;14.67;12.60;;;25.30;49.20;;;;;;5103761;28;20197;-62
2021/07/20 06:37:22;;;;;;;15.20;13.07;;;25.30;49.30;;;;;;5092829;28;20201;-63
2021/07/20 06:39:54;;;;;;;14.80;12.77;;;25.30;49.50;;;;;;5097124;28;20602;-63
2021/07/20 06:42:25;;;;;;;17.50;12.70;;;25.30;49.50;;;;;;5092743;28;20602;-63
2021/07/20 06:45:12;;;;;;;14.97;11.70;;;25.30;49.50;;;;;;5095709;28;20216;-63
2021/07/20 06:47:45;;;;;;;13.77;12.37;;;25.20;49.40;;;;;;5095789;28;20209;-64
2021/07/20 06:50:18;;;;;;;14.17;12.13;;;25.30;49.50;;;;;;5100224;28;20544;-63
2021/07/20 06:52:49;;;;;;;13.97;12.47;;;25.30;49.40;;;;;;5105245;28;20592;-63
2021/07/20 06:55:25;;;;;;;14.60;12.13;;;25.30;49.40;;;;;;5096005;28;20192;-63
2021/07/20 06:57:56;;;;;;;14.77;12.33;;;25.20;49.30;;;;;;5098705;28;20517;-63
2021/07/20 07:00:55;;;;;;;13.37;11.97;;;25.20;49.40;;;;;;5099962;28;20216;-65
2021/07/20 07:03:54;;;;;;;14.73;12.70;;;25.20;50.00;;;;;;5102442;28;20266;-65
2021/07/20 07:06:28;;;;;;;13.40;11.90;;;25.30;49.70;;;;;;5105393;28;20637;-65
2021/07/20 07:09:02;;;;;;;14.03;12.53;;;25.30;49.60;;;;;;5099281;28;20594;-65
2021/07/20 07:11:33;;;;;;;15.87;12.90;;;25.30;49.30;;;;;;5109166;28;20629;-64
2021/07/20 07:14:15;;;;;;;15.53;11.67;;;25.40;49.30;;;;;;5102650;28;20215;-65
2021/07/20 07:16:48;;;;;;;13.13;11.73;;;25.40;49.20;;;;;;5108516;28;20192;-66
2021/07/20 07:19:21;;;;;;;16.20;12.30;;;25.40;49.20;;;;;;5097521;28;20285;-64
2021/07/20 07:21:51;;;;;;;13.90;12.10;;;25.40;49.30;;;;;;5093189;28;20614;-63
2021/07/20 07:24:21;;;;;;;13.20;11.67;;;25.50;49.40;;;;;;5105260;28;20649;-63
2021/07/20 07:27:14;;;;;;;16.53;13.10;;;25.50;49.20;;;;;;5108772;28;20208;-64
2021/07/20 07:30:11;;;;;;;16.50;11.10;;;25.50;49.60;;;;;;5095959;28;20199;-64
2021/07/20 07:32:54;;;;;;;17.10;12.17;;;25.60;49.90;;;;;;5101985;28;20275;-65
2021/07/20 07:35:22;;;;;;;16.53;11.97;;;25.60;49.70;;;;;;5105089;28;20769;-64
2021/07/20 07:37:53;;;;;;;14.27;11.60;;;25.60;49.60;;;;;;5097455;28;20589;-63
2021/07/20 07:40:53;;;;;;;15.07;11.83;;;25.70;49.70;;;;;;5098514;28;20196;-63
2021/07/20 07:43:43;;;;;;;13.67;11.53;;;25.70;49.90;;;;;;5101027;28;20212;-63
2021/07/20 07:46:20;;;;;;;13.97;10.80;;;25.70;49.70;;;;;;5097633;28;20699;-64
2021/07/20 07:48:51;;;;;;;13.27;11.60;;;25.70;49.60;;;;;;5102924;28;20269;-64
2021/07/20 07:51:23;;;;;;;14.27;11.40;;;25.70;49.20;;;;;;5106725;28;20216;-64
2021/07/20 07:54:13;;;;;;;13.87;11.03;;;25.70;49.20;;;;;;5106709;28;20832;-65
2021/07/20 07:56:52;;;;;;;13.57;11.57;;;25.70;49.00;;;;;;5106528;28;20201;-64
2021/07/20 07:59:26;;;;;;;13.07;10.73;;;25.80;49.20;;;;;;5092915;28;20211;-64
2021/07/20 08:02:05;;;;;;;14.67;10.97;;;25.80;49.40;;;;;;5102813;28;20246;-65
2021/07/20 08:04:45;;;;;;;14.47;10.60;;;25.80;49.50;;;;;;5108088;28;20221;-66
2021/07/20 08:07:18;;;;;;;12.23;10.93;;;25.80;49.30;;;;;;5087371;28;20208;-63
2021/07/20 08:09:50;;;;;;;12.53;10.97;;;25.80;49.60;;;;;;5078279;28;20197;-63
2021/07/20 08:12:41;;;;;;;16.35;11.98;;;25.80;50.10;;;;;;5101619;28;20422;-67
2021/07/20 08:15:13;;;;;;;14.20;11.60;;;25.90;51.50;;;;;;5093446;28;20213;-65
2021/07/20 08:17:45;;;;;;;14.23;10.93;;;25.90;51.60;;;;;;5096118;28;20211;-66
2021/07/20 08:20:13;;;;;;;12.73;11.40;;;25.90;51.30;;;;;;5089343;28;20261;-64
2021/07/20 08:22:42;;;;;;;11.90;10.70;;;26.00;52.30;;;;;;5088711;28;20215;-64
2021/07/20 08:25:37;;;;;;;11.80;10.57;;;26.00;52.40;;;;;;5096100;28;20559;-64
2021/07/20 08:28:28;;;;;;;11.97;10.67;;;25.90;52.00;;;;;;5103109;28;20820;-67
2021/07/20 08:31:03;;;;;;;11.80;10.57;;;25.90;52.10;;;;;;5098392;28;20192;-64
2021/07/20 08:33:53;;;;;;;13.63;10.93;;;25.90;52.30;;;;;;5109629;28;20827;-66
2021/07/20 08:36:27;;;;;;;15.10;11.10;;;25.90;53.20;;;;;;5100164;28;20200;-63
2021/07/20 08:38:58;;;;;;;13.80;11.23;;;26.00;53.00;;;;;;5094673;27;20577;-64
2021/07/20 08:42:04;;;;;;;11.93;10.73;;;26.00;52.10;;;;;;5101357;28;20230;-65
2021/07/20 08:45:15;;;;;;;15.03;11.67;;;26.00;52.00;;;;;;5101884;28;20216;-65
2021/07/20 08:48:28;;;;;;;11.20;10.03;;;26.10;51.80;;;;;;5097205;28;20197;-65
2021/07/20 08:51:17;;;;;;;11.93;10.60;;;26.10;51.90;;;;;;5099035;28;20688;-65
2021/07/20 08:54:08;;;;;;;11.83;10.50;;;26.10;51.20;;;;;;5105401;28;20200;-65
2021/07/20 08:57:20;;;;;;;11.97;10.37;;;26.10;51.10;;;;;;5103462;28;20296;-65
2021/07/20 09:00:21;;;;;;;11.97;10.77;;;26.10;50.40;;;;;;5101579;28;20653;-67
2021/07/20 09:03:32;;;;;;;11.93;10.63;;;26.20;51.70;;;;;;5092834;28;20196;-67
2021/07/20 09:06:42;;;;;;;11.77;10.57;;;26.20;50.80;;;;;;5103142;28;20196;-67
2021/07/20 09:09:33;;;;;;;11.70;10.50;;;26.20;50.50;;;;;;5093843;28;20199;-67
2021/07/20 09:12:28;;;;;;;11.13;10.07;;;26.20;50.70;;;;;;5092901;28;20626;-67
2021/07/20 09:15:25;;;;;;;12.13;10.17;;;26.20;51.20;;;;;;5095626;28;20224;-65
2021/07/20 09:18:22;;;;;;;11.03;9.93;;;26.20;51.60;;;;;;5095772;28;20216;-65
2021/07/20 09:21:00;;;;;;;11.83;10.63;;;26.20;51.80;;;;;;5099994;28;20293;-65
2021/07/20 09:23:56;;;;;;;10.80;9.70;;;26.20;52.50;;;;;;5091547;28;20192;-66
2021/07/20 09:26:37;;;;;;;11.73;9.50;;;26.20;51.60;;;;;;5100611;28;20188;-67
2021/07/20 09:29:16;;;;;;;12.57;10.80;;;26.30;52.00;;;;;;5105564;28;20196;-68
2021/07/20 09:32:06;;;;;;;12.03;10.83;;;26.30;51.00;;;;;;5097111;28;20193;-65
2021/07/20 09:35:15;;;;;;;11.40;10.00;;;26.30;51.30;;;;;;5103456;28;20216;-66
2021/07/20 09:38:27;;;;;;;12.67;11.07;;;26.30;51.10;;;;;;5101474;28;20236;-66
2021/07/20 09:41:33;;;;;;;10.87;9.77;;;26.40;50.20;;;;;;5098012;28;20248;-66
2021/07/20 09:44:39;;;;;;;11.17;10.07;;;26.40;52.40;;;;;;5092182;28;20280;-65
2021/07/20 09:47:21;;;;;;;11.13;10.03;;;26.40;51.60;;;;;;5104598;28;20191;-65
2021/07/20 09:50:11;;;;;;;11.47;10.37;;;26.40;50.90;;;;;;5100220;28;20723;-65
2021/07/20 09:52:57;;;;;;;11.87;10.53;;;26.40;50.20;;;;;;5099711;28;20201;-65
2021/07/20 09:56:10;;;;;;;11.70;10.20;;;26.40;50.40;;;;;;5118346;27;20208;-66
2021/07/20 09:58:57;;;;;;;12.03;10.73;;;26.40;49.80;;;;;;5098237;28;20739;-65
2021/07/20 10:01:36;;;;;;;12.00;10.67;;;26.40;50.40;;;;;;5108511;28;20188;-65
2021/07/20 10:04:51;;;;;;;11.43;10.30;;;26.40;49.40;;;;;;5099489;28;20309;-64
2021/07/20 10:07:52;;;;;;;11.77;10.60;;;26.40;49.90;;;;;;5103974;28;20839;-64
2021/07/20 10:10:46;;;;;;;13.97;10.43;;;26.40;49.80;;;;;;5096657;28;20203;-65
2021/07/20 10:13:46;;;;;;;11.40;10.23;;;26.30;50.70;;;;;;5100222;28;20207;-64
2021/07/20 10:16:30;;;;;;;12.10;10.80;;;26.30;51.00;;;;;;5087280;28;20586;-63
2021/07/20 10:19:16;;;;;;;12.50;10.43;;;26.20;50.80;;;;;;5100011;28;20545;-63
2021/07/20 10:21:51;;;;;;;11.77;9.60;;;26.20;51.00;;;;;;5107821;28;20204;-64
2021/07/20 10:24:57;;;;;;;11.97;10.67;;;26.20;50.80;;;;;;5095775;28;20220;-64
2021/07/20 10:27:52;;;;;;;12.50;10.73;;;26.20;50.20;;;;;;5096630;28;20210;-65
2021/07/20 10:30:46;;;;;;;11.30;10.10;;;26.10;51.60;;;;;;5102839;28;20280;-65
2021/07/20 10:33:33;;;;;;;11.07;9.97;;;26.10;50.60;;;;;;5104618;28;20197;-65
2021/07/20 10:36:32;;;;;;;11.23;10.13;;;26.10;51.50;;;;;;5101301;28;20288;-65
2021/07/20 10:39:14;;;;;;;11.10;10.07;;;26.10;51.20;;;;;;5104118;28;20585;-67
2021/07/20 10:42:02;;;;;;;11.87;9.73;;;26.10;51.90;;;;;;5099274;28;20254;-64
2021/07/20 10:44:58;;;;;;;10.93;9.83;;;26.10;51.50;;;;;;5107757;28;20206;-66
2021/07/20 10:47:55;;;;;;;10.60;9.60;;;26.10;51.00;;;;;;5104221;28;20197;-65
2021/07/20 10:50:55;;;;;;;12.73;10.63;;;26.20;51.30;;;;;;5090750;28;20232;-66
2021/07/20 10:53:47;;;;;;;12.63;10.30;;;26.20;50.30;;;;;;5106356;28;20189;-65
2021/07/20 10:56:55;;;;;;;10.90;9.80;;;26.30;49.70;;;;;;5102190;28;20271;-68
2021/07/20 10:59:54;;;;;;;12.57;11.20;;;26.40;49.60;;;;;;5099370;28;20212;-67
2021/07/20 11:02:31;;;;;;;12.17;10.60;;;26.40;49.00;;;;;;5106973;28;20208;-66
2021/07/20 11:05:09;;;;;;;10.87;9.77;;;26.40;50.10;;;;;;5104792;28;20588;-66
2021/07/20 11:07:46;;;;;;;11.67;10.50;;;26.40;50.30;;;;;;5100624;28;20657;-65
2021/07/20 11:10:35;;;;;;;12.87;10.57;;;26.40;49.70;;;;;;5097938;28;20201;-65
2021/07/20 11:13:12;;;;;;;12.67;10.80;;;26.40;49.50;;;;;;5100448;28;20208;-65
2021/07/20 11:15:53;;;;;;;12.67;10.20;;;26.40;48.80;;;;;;5104015;28;20204;-63
2021/07/20 11:18:41;;;;;;;11.63;10.53;;;26.50;48.20;;;;;;5101999;28;20208;-66
2021/07/20 11:21:21;;;;;;;12.53;10.33;;;26.50;48.60;;;;;;5104629;28;20288;-64
2021/07/20 11:23:54;;;;;;;14.87;11.23;;;26.60;49.80;;;;;;5104363;28;20665;-65
2021/07/20 11:26:27;;;;;;;12.67;10.20;;;26.60;49.80;;;;;;5104220;28;20223;-65
2021/07/20 11:28:59;;;;;;;11.67;10.07;;;26.60;50.10;;;;;;5103251;28;20220;-65
2021/07/20 11:31:58;;;;;;;11.33;10.23;;;26.60;49.20;;;;;;5105899;28;20284;-65
2021/07/20 11:34:44;;;;;;;12.07;9.93;;;26.60;49.30;;;;;;5101450;28;20636;-65
2021/07/20 11:37:35;;;;;;;10.90;9.83;;;26.70;49.40;;;;;;5105097;28;21063;-67
2021/07/20 11:40:19;;;;;;;13.20;10.63;;;26.70;50.20;;;;;;5102678;28;20216;-65
2021/07/20 11:43:06;;;;;;;12.07;10.47;;;26.70;49.40;;;;;;5106535;28;20218;-64
2021/07/20 11:46:12;;;;;;;11.40;10.30;;;26.70;49.70;;;;;;5101982;28;20225;-65
2021/07/20 11:49:14;;;;;;;11.63;10.43;;;26.80;49.60;;;;;;5095611;28;20213;-65
2021/07/20 11:52:15;;;;;;;11.20;9.47;;;26.80;49.80;;;;;;5098834;28;20193;-64
2021/07/20 11:55:29;;;;;;;11.63;9.93;;;26.80;49.00;;;;;;5103601;28;20200;-65
2021/07/20 11:58:10;;;;;;;11.73;10.50;;;26.80;48.90;;;;;;5099455;28;20578;-65
2021/07/20 12:00:57;;;;;;;10.93;9.83;;;26.80;47.90;;;;;;5100578;28;20207;-66
2021/07/20 12:03:53;;;;;;;10.70;9.60;;;26.90;49.40;;;;;;5109621;28;20212;-65
2021/07/20 12:06:58;;;;;;;11.80;10.17;;;26.90;48.80;;;;;;5103646;28;20224;-64
2021/07/20 12:09:50;;;;;;;12.03;10.17;;;26.90;48.90;;;;;;5100684;28;20613;-66
2021/07/20 12:12:50;;;;;;;12.73;10.87;;;26.90;48.10;;;;;;5099231;28;20200;-67
2021/07/20 12:15:25;;;;;;;12.73;10.33;;;26.90;48.30;;;;;;5104938;28;20196;-67
2021/07/20 12:17:57;;;;;;;11.90;9.93;;;26.90;48.50;;;;;;5106224;28;20212;-65
2021/07/20 12:20:25;;;;;;;11.43;10.33;;;26.90;49.30;;;;;;5101025;28;20232;-67
2021/07/20 12:22:58;;;;;;;11.03;9.93;;;27.00;48.40;;;;;;5105642;28;20201;-65
2021/07/20 12:25:33;;;;;;;11.43;10.13;;;26.90;48.10;;;;;;5099243;28;20819;-65
2021/07/20 12:28:02;;;;;;;12.07;10.83;;;26.90;48.20;;;;;;5103418;28;21580;-66
2021/07/20 12:30:34;;;;;;;13.43;10.53;;;27.00;47.40;;;;;;5097911;28;20201;-64
2021/07/20 12:33:13;;;;;;;11.53;10.13;;;26.90;47.80;;;;;;5100529;28;20201;-64
2021/07/20 12:35:49;;;;;;;11.20;9.97;;;27.00;48.10;;;;;;5105367;28;20205;-66
2021/07/20 12:38:24;;;;;;;14.40;10.77;;;27.00;47.80;;;;;;5105829;28;20641;-66
2021/07/20 12:41:04;;;;;;;12.73;10.00;;;27.00;48.00;;;;;;5103621;28;20239;-68
2021/07/20 12:43:33;;;;;;;11.50;10.40;;;27.00;48.00;;;;;;5102671;28;20196;-65
2021/07/20 12:46:16;;;;;;;12.77;11.17;;;27.00;47.60;;;;;;5096941;28;20252;-66
2021/07/20 12:48:57;;;;;;;13.67;10.67;;;27.10;48.00;;;;;;5102856;28;20200;-67
2021/07/20 12:51:29;;;;;;;12.57;10.07;;;27.10;48.20;;;;;;5101143;28;20200;-66
2021/07/20 12:53:59;;;;;;;11.40;10.23;;;27.10;48.30;;;;;;5101145;28;20261;-66
2021/07/20 12:56:30;;;;;;;11.53;10.37;;;27.10;48.00;;;;;;5101043;28;20623;-65
2021/07/20 12:59:07;;;;;;;11.90;10.60;;;27.10;48.30;;;;;;5098109;28;20220;-65
2021/07/20 13:01:49;;;;;;;11.67;9.93;;;27.20;47.20;;;;;;5102123;28;20291;-66
2021/07/20 13:04:22;;;;;;;11.57;10.47;;;27.20;48.20;;;;;;5097269;28;20256;-67
2021/07/20 13:06:53;;;;;;;15.73;10.80;;;27.20;48.30;;;;;;5089650;28;20235;-64
2021/07/20 13:09:24;;;;;;;12.07;10.77;;;27.20;47.60;;;;;;5096011;28;20193;-63
2021/07/20 13:11:54;;;;;;;13.93;11.27;;;27.20;47.20;;;;;;5100732;28;20207;-63
2021/07/20 13:14:43;;;;;;;12.53;11.27;;;27.20;47.70;;;;;;5094027;28;20283;-63
2021/07/20 13:17:12;;;;;;;12.50;11.20;;;27.20;47.30;;;;;;5096092;28;20196;-64
2021/07/20 13:19:46;;;;;;;12.17;10.97;;;27.10;47.30;;;;;;5100659;28;20941;-64
2021/07/20 13:22:25;;;;;;;15.97;11.90;;;27.10;47.70;;;;;;5100375;28;20188;-64
2021/07/20 13:24:59;;;;;;;20.53;10.50;;;27.10;45.80;;;;;;5098219;28;20215;-64
2021/07/20 13:27:35;;;;;;;12.17;10.87;;;27.10;46.30;;;;;;5095937;28;20211;-64
2021/07/20 13:30:11;;;;;;;13.67;11.70;;;27.10;47.30;;;;;;5097463;28;20200;-64
2021/07/20 13:32:43;;;;;;;11.53;10.43;;;27.20;48.00;;;;;;5099630;28;20197;-65
2021/07/20 13:35:13;;;;;;;12.57;11.27;;;27.20;47.20;;;;;;5103410;28;20211;-67
2021/07/20 13:37:44;;;;;;;12.00;10.40;;;27.20;46.70;;;;;;5103366;28;20212;-66
2021/07/20 13:40:15;;;;;;;13.63;11.23;;;27.20;47.70;;;;;;5101164;27;20686;-66
2021/07/20 13:42:44;;;;;;;12.87;11.57;;;27.20;48.40;;;;;;5101716;28;20204;-65